AirNav   Everest Fuels
 
 413 users online  

03PA Collegeville Heliport
Collegeville, Pennsylvania, USA

GOING TO COLLEGEVILLE?


FAA INFORMATION EFFECTIVE 18 JUNE 2020

Location

FAA Identifier: 03PA
Lat/Long: 40-09-46.3760N 075-27-56.6650W
40-09.772933N 075-27.944417W
40.1628822,-75.4657403
(estimated)
Elevation: 197 ft. / 60 m (estimated)
Variation: 12W (2000)
From city: 2 miles SW of COLLEGEVILLE, PA
Time zone: UTC -4 (UTC -5 during Standard Time)
Zip code: 19426

Heliport Operations

Heliport use: Private use. Permission required prior to landing
Activation date: 12/1991
Control tower: no
ARTCC: NEW YORK CENTER
FSS: WILLIAMSPORT FLIGHT SERVICE STATION
Attendance: DAWN-DUSK
Wind indicator: lighted
Segmented circle: no
Lights: FOR PERIMETER LGTS CALL 215-454-8619.

Heliport Communications

WX ASOS at PTW (6 nm NW): 119.425 (610-495-0823)
WX AWOS-3 at LOM (9 nm E): 118.925 (215-646-1068)
WX AWOS-3T at OQN (12 nm SW): 121.4 ((610) 692-6190)
WX AWOS-3 at CKZ (16 nm NE): 126.325 (215-257-7291)
WX AWOS-3 at UKT (17 nm N): 119.475 (215-538-7610)
WX ASOS at DYL (19 nm NE): 118.875 (215-345-0392)

Nearby radio navigation aids

VOR radial/distance  VOR name  Freq  Var
PTWr138/5.6POTTSTOWN VORTAC116.5009W
MXEr042/17.5MODENA VORTAC113.2009W
ARDr268/26.1YARDLEY VOR/DME108.2010W
ETXr167/27.0EAST TEXAS VOR/DME110.2009W
DQOr023/29.8DUPONT VORTAC114.0010W
OODr357/32.5WOODSTOWN VORTAC112.8010W
FJCr191/33.8ALLENTOWN VORTAC117.5010W
LRPr095/38.0LANCASTER VOR/DME117.3009W

 
NDB name  Hdg/Dist  Freq  Var  ID
AMBLER297/8.627512WING .. -. --.

Heliport Services

Runway Information

Helipad H1

Dimensions: 130 x 80 ft. / 40 x 24 m
Surface: asphalt
Runway edge lights: PERI
Latitude: 40-09.772933N
Longitude: 075-27.944417W
Elevation: 197.0 ft.
Traffic pattern: leftleft

Heliport Ownership and Management from official FAA records

Ownership: Privately-owned
Owner: RHONE-POULENE RORER
500 AREOLA RD
COLLEGEVILLE, PA 19426-0107
Phone 215-454-8619
Manager: CRAIG CLAPPER
500 AREOLA RD
COLLEGEVILLE, PA 19426-0107
Phone 215-454-8619

Additional Remarks

A52-H1 23 FT BLDG 150 FT SE; 29 FT BLDG 230 FT ESE OF HELIPAD.
FOR CD CTC PHILADELPHIA APCH AT 800-354-9884.

Instrument Procedures

There are no published instrument procedures at 03PA.

Some nearby airports with instrument procedures:

N10 - Perkiomen Valley Airport (3 nm NE)
KPTW - Heritage Field Airport (6 nm NW)
KLOM - Wings Field Airport (9 nm E)
N47 - Pottstown Municipal Airport (11 nm NW)
KOQN - Brandywine Regional Airport (12 nm SW)
KCKZ - Pennridge Airport (16 nm NE)
KUKT - Quakertown Airport (17 nm N)
KDYL - Doylestown Airport (19 nm NE)
 
Loc | Ops | Rwys | IFR | FBO | Links
Com | Nav | Svcs | Stats | Notes
Area around 03PA (Collegeville Heliport)
 
Road maps at: MapQuest Bing Google
 
Aerial photo
No photo
 
Sectional chart

 
Airport distance calculator
Flying to Collegeville Heliport? Find the distance to fly.

From to 03PA

Sunrise and sunset
Times for 05-Jul-2020
 Local
(UTC-4)
 Zulu
(UTC)
Morning civil twilight05:0709:07
Sunrise05:4009:40
Sunset20:3300:33
Evening civil twilight21:0601:06

Current date and time
Zulu (UTC)  05-Jul-2020 05:25:28
Local (UTC-4)  05-Jul-2020 01:25:28
 
METAR
KPTW 
6nm NW 
050454Z AUTO 00000KT 7SM FEW070 23/21 A2996 RMK AO2 SLP141 T02280206 403060194
KLOM 
9nm E 
050455Z AUTO 20004KT 10SM CLR 23/21 A2994 RMK AO2 T02350209
KOQN 
12nm SW 
050455Z AUTO 00000KT 7SM CLR 23/21 A2996 RMK AO2
KCKZ 
16nm NE 
050455Z AUTO 22003KT 10SM FEW110 23/22 A2996 RMK AO2
KUKT 
17nm N 
050455Z AUTO 20003KT 10SM FEW100 22/21 A2995 RMK A01
KDYL 
19nm NE 
050454Z AUTO 20003KT 10SM FEW110 23/18 A2994 RMK AO2 SLP131 T02280178 403280217
TAF
NOTAMs
Click for the latest NOTAMs
NOTAMs are issued by the DoD/FAA and will open in a separate window not controlled by AirNav.

 

 
 

Would you like to see your business listed on this page?

 If your business provides an interesting product or service to pilots, flight crews, aircraft, or users of the Collegeville Heliport, you should consider listing it here.  To start the listing process, click on the button below
 
Add a business
 

Other Pages about Collegeville Heliport

Update a link
 
Copyright © AirNav, LLC. All rights reserved. Privacy Policy  Contact